sensor_id;sensor_type;location;lat;lon;timestamp;temperature;humidity
16437;DHT22;8328;52.206;21.006;2023-05-17T00:00:22;15.50;99.90
16437;DHT22;8328;52.206;21.006;2023-05-17T00:02:48;15.40;99.90
16437;DHT22;8328;52.206;21.006;2023-05-17T00:05:13;15.40;99.90
16437;DHT22;8328;52.206;21.006;2023-05-17T00:07:39;15.40;99.90
16437;DHT22;8328;52.206;21.006;2023-05-17T00:10:05;15.40;99.90
16437;DHT22;8328;52.206;21.006;2023-05-17T00:12:31;15.30;99.90
16437;DHT22;8328;52.206;21.006;2023-05-17T00:14:57;15.40;99.90
16437;DHT22;8328;52.206;21.006;2023-05-17T00:17:23;15.30;99.90
16437;DHT22;8328;52.206;21.006;2023-05-17T00:19:48;15.30;99.90
16437;DHT22;8328;52.206;21.006;2023-05-17T00:22:14;15.30;99.90
16437;DHT22;8328;52.206;21.006;2023-05-17T00:24:40;15.20;99.90
16437;DHT22;8328;52.206;21.006;2023-05-17T00:27:06;15.20;99.90
16437;DHT22;8328;52.206;21.006;2023-05-17T00:29:31;15.10;99.90
16437;DHT22;8328;52.206;21.006;2023-05-17T00:31:57;15.10;99.90
16437;DHT22;8328;52.206;21.006;2023-05-17T00:34:23;15.10;99.90
16437;DHT22;8328;52.206;21.006;2023-05-17T00:36:48;15.20;99.90
16437;DHT22;8328;52.206;21.006;2023-05-17T00:39:14;15.10;99.90
16437;DHT22;8328;52.206;21.006;2023-05-17T00:41:40;15.00;99.90
16437;DHT22;8328;52.206;21.006;2023-05-17T00:44:06;15.00;99.90
16437;DHT22;8328;52.206;21.006;2023-05-17T00:46:32;14.90;99.90
16437;DHT22;8328;52.206;21.006;2023-05-17T00:48:58;14.90;99.90
16437;DHT22;8328;52.206;21.006;2023-05-17T00:51:24;14.80;99.90
16437;DHT22;8328;52.206;21.006;2023-05-17T00:53:50;14.80;99.90
16437;DHT22;8328;52.206;21.006;2023-05-17T00:56:16;14.90;99.90
16437;DHT22;8328;52.206;21.006;2023-05-17T00:58:42;14.90;99.90
16437;DHT22;8328;52.206;21.006;2023-05-17T01:01:08;12.90;99.90
16437;DHT22;8328;52.206;21.006;2023-05-17T01:03:34;14.90;99.90
16437;DHT22;8328;52.206;21.006;2023-05-17T01:06:00;14.90;99.90
16437;DHT22;8328;52.206;21.006;2023-05-17T01:08:26;14.90;99.90
16437;DHT22;8328;52.206;21.006;2023-05-17T01:11:13;14.90;99.90
16437;DHT22;8328;52.206;21.006;2023-05-17T01:13:57;14.80;99.90
16437;DHT22;8328;52.206;21.006;2023-05-17T01:17:03;14.80;99.90
16437;DHT22;8328;52.206;21.006;2023-05-17T01:22:29;14.70;99.90
16437;DHT22;8328;52.206;21.006;2023-05-17T01:27:42;14.70;99.90
16437;DHT22;8328;52.206;21.006;2023-05-17T01:30:11;14.70;99.90
16437;DHT22;8328;52.206;21.006;2023-05-17T01:32:40;14.70;99.90
16437;DHT22;8328;52.206;21.006;2023-05-17T01:35:07;14.70;99.90
16437;DHT22;8328;52.206;21.006;2023-05-17T01:37:33;14.70;99.90
16437;DHT22;8328;52.206;21.006;2023-05-17T01:39:59;14.60;99.90
16437;DHT22;8328;52.206;21.006;2023-05-17T01:42:31;14.60;99.90
16437;DHT22;8328;52.206;21.006;2023-05-17T01:48:33;14.60;99.90
16437;DHT22;8328;52.206;21.006;2023-05-17T01:51:01;14.50;99.90
16437;DHT22;8328;52.206;21.006;2023-05-17T01:53:38;14.60;99.90
16437;DHT22;8328;52.206;21.006;2023-05-17T01:56:09;14.60;99.90
16437;DHT22;8328;52.206;21.006;2023-05-17T01:58:45;14.50;99.90
16437;DHT22;8328;52.206;21.006;2023-05-17T02:01:13;14.50;99.90
16437;DHT22;8328;52.206;21.006;2023-05-17T02:03:40;14.50;99.90
16437;DHT22;8328;52.206;21.006;2023-05-17T02:06:06;14.50;99.90
16437;DHT22;8328;52.206;21.006;2023-05-17T02:08:31;14.50;99.90
16437;DHT22;8328;52.206;21.006;2023-05-17T02:10:57;14.40;99.90
16437;DHT22;8328;52.206;21.006;2023-05-17T02:13:23;14.30;99.90
16437;DHT22;8328;52.206;21.006;2023-05-17T02:15:49;14.30;99.90
16437;DHT22;8328;52.206;21.006;2023-05-17T02:18:15;14.30;99.90
16437;DHT22;8328;52.206;21.006;2023-05-17T02:20:41;14.20;99.90
16437;DHT22;8328;52.206;21.006;2023-05-17T02:23:06;14.20;99.90
16437;DHT22;8328;52.206;21.006;2023-05-17T02:25:32;14.20;99.90
16437;DHT22;8328;52.206;21.006;2023-05-17T02:27:58;14.20;99.90
16437;DHT22;8328;52.206;21.006;2023-05-17T02:30:23;14.20;99.90
16437;DHT22;8328;52.206;21.006;2023-05-17T02:32:50;14.10;99.90
16437;DHT22;8328;52.206;21.006;2023-05-17T02:35:16;14.10;99.90
16437;DHT22;8328;52.206;21.006;2023-05-17T02:37:42;12.30;99.90
16437;DHT22;8328;52.206;21.006;2023-05-17T02:40:08;14.10;99.90
16437;DHT22;8328;52.206;21.006;2023-05-17T02:42:35;14.10;99.90
16437;DHT22;8328;52.206;21.006;2023-05-17T02:45:01;14.10;99.90
16437;DHT22;8328;52.206;21.006;2023-05-17T02:47:27;14.10;99.90
16437;DHT22;8328;52.206;21.006;2023-05-17T02:49:53;14.10;99.90
16437;DHT22;8328;52.206;21.006;2023-05-17T02:52:18;14.00;99.90
16437;DHT22;8328;52.206;21.006;2023-05-17T02:54:44;14.00;99.90
16437;DHT22;8328;52.206;21.006;2023-05-17T02:57:10;14.00;99.90
16437;DHT22;8328;52.206;21.006;2023-05-17T02:59:36;14.00;99.90
16437;DHT22;8328;52.206;21.006;2023-05-17T03:02:02;14.00;99.90
16437;DHT22;8328;52.206;21.006;2023-05-17T03:04:28;13.90;99.90
16437;DHT22;8328;52.206;21.006;2023-05-17T03:06:53;13.90;99.90
16437;DHT22;8328;52.206;21.006;2023-05-17T03:09:20;13.80;99.90
16437;DHT22;8328;52.206;21.006;2023-05-17T03:11:47;13.80;99.90
16437;DHT22;8328;52.206;21.006;2023-05-17T03:14:12;13.80;99.90
16437;DHT22;8328;52.206;21.006;2023-05-17T03:16:38;13.70;99.90
16437;DHT22;8328;52.206;21.006;2023-05-17T03:19:04;13.70;99.90
16437;DHT22;8328;52.206;21.006;2023-05-17T03:21:30;13.70;99.90
16437;DHT22;8328;52.206;21.006;2023-05-17T03:23:56;13.70;99.90
16437;DHT22;8328;52.206;21.006;2023-05-17T03:26:22;13.70;99.90
16437;DHT22;8328;52.206;21.006;2023-05-17T03:28:48;13.60;99.90
16437;DHT22;8328;52.206;21.006;2023-05-17T03:31:14;13.60;99.90
16437;DHT22;8328;52.206;21.006;2023-05-17T03:33:41;13.70;99.90
16437;DHT22;8328;52.206;21.006;2023-05-17T03:36:07;13.70;99.90
16437;DHT22;8328;52.206;21.006;2023-05-17T03:38:33;13.70;99.90
16437;DHT22;8328;52.206;21.006;2023-05-17T03:40:59;13.70;99.90
16437;DHT22;8328;52.206;21.006;2023-05-17T03:43:25;13.70;99.90
16437;DHT22;8328;52.206;21.006;2023-05-17T03:45:50;13.70;99.90
16437;DHT22;8328;52.206;21.006;2023-05-17T03:48:16;13.70;99.90
16437;DHT22;8328;52.206;21.006;2023-05-17T03:50:42;13.70;99.90
16437;DHT22;8328;52.206;21.006;2023-05-17T03:53:08;13.70;99.90
16437;DHT22;8328;52.206;21.006;2023-05-17T03:55:34;13.70;99.90
16437;DHT22;8328;52.206;21.006;2023-05-17T03:58:00;13.70;99.90
16437;DHT22;8328;52.206;21.006;2023-05-17T04:00:26;13.70;99.90
16437;DHT22;8328;52.206;21.006;2023-05-17T04:02:51;13.80;99.90
16437;DHT22;8328;52.206;21.006;2023-05-17T04:05:17;13.80;99.90
16437;DHT22;8328;52.206;21.006;2023-05-17T04:07:43;13.80;99.90
16437;DHT22;8328;52.206;21.006;2023-05-17T04:10:10;13.80;99.90
16437;DHT22;8328;52.206;21.006;2023-05-17T04:12:36;13.70;99.90
16437;DHT22;8328;52.206;21.006;2023-05-17T04:15:03;13.80;99.90
16437;DHT22;8328;52.206;21.006;2023-05-17T04:17:29;13.80;99.90
16437;DHT22;8328;52.206;21.006;2023-05-17T04:19:55;13.80;99.90
16437;DHT22;8328;52.206;21.006;2023-05-17T04:22:21;13.90;99.90
16437;DHT22;8328;52.206;21.006;2023-05-17T04:24:46;13.90;99.90
16437;DHT22;8328;52.206;21.006;2023-05-17T04:27:12;13.90;99.90
16437;DHT22;8328;52.206;21.006;2023-05-17T04:29:38;13.90;99.90
16437;DHT22;8328;52.206;21.006;2023-05-17T04:32:06;13.90;99.90
16437;DHT22;8328;52.206;21.006;2023-05-17T04:34:32;13.90;99.90
16437;DHT22;8328;52.206;21.006;2023-05-17T04:36:58;13.90;99.90
16437;DHT22;8328;52.206;21.006;2023-05-17T04:39:24;13.90;99.90
16437;DHT22;8328;52.206;21.006;2023-05-17T04:41:50;13.90;99.90
16437;DHT22;8328;52.206;21.006;2023-05-17T04:44:16;13.90;99.90
16437;DHT22;8328;52.206;21.006;2023-05-17T04:46:42;13.90;99.90
16437;DHT22;8328;52.206;21.006;2023-05-17T04:49:08;13.90;99.90
16437;DHT22;8328;52.206;21.006;2023-05-17T04:51:35;14.00;99.90
16437;DHT22;8328;52.206;21.006;2023-05-17T04:54:00;14.00;99.90
16437;DHT22;8328;52.206;21.006;2023-05-17T04:56:27;14.10;99.90
16437;DHT22;8328;52.206;21.006;2023-05-17T04:58:53;14.10;99.90
16437;DHT22;8328;52.206;21.006;2023-05-17T05:01:19;14.10;99.90
16437;DHT22;8328;52.206;21.006;2023-05-17T05:03:45;14.10;99.90
16437;DHT22;8328;52.206;21.006;2023-05-17T05:06:11;14.10;99.90
16437;DHT22;8328;52.206;21.006;2023-05-17T05:08:37;14.20;99.90
16437;DHT22;8328;52.206;21.006;2023-05-17T05:11:03;14.30;99.90
16437;DHT22;8328;52.206;21.006;2023-05-17T05:13:29;14.40;99.90
16437;DHT22;8328;52.206;21.006;2023-05-17T05:15:55;14.40;99.90
16437;DHT22;8328;52.206;21.006;2023-05-17T05:18:20;14.30;99.90
16437;DHT22;8328;52.206;21.006;2023-05-17T05:20:50;14.30;99.90
16437;DHT22;8328;52.206;21.006;2023-05-17T05:23:15;14.30;99.90
16437;DHT22;8328;52.206;21.006;2023-05-17T05:25:43;14.50;99.90
16437;DHT22;8328;52.206;21.006;2023-05-17T05:28:08;14.80;99.90
16437;DHT22;8328;52.206;21.006;2023-05-17T05:30:35;15.00;99.90
16437;DHT22;8328;52.206;21.006;2023-05-17T05:33:01;14.90;99.90
16437;DHT22;8328;52.206;21.006;2023-05-17T05:35:27;14.90;99.90
16437;DHT22;8328;52.206;21.006;2023-05-17T05:37:56;14.90;99.90
16437;DHT22;8328;52.206;21.006;2023-05-17T05:40:23;14.90;99.90
16437;DHT22;8328;52.206;21.006;2023-05-17T05:42:48;14.90;99.90
16437;DHT22;8328;52.206;21.006;2023-05-17T05:45:14;15.10;99.90
16437;DHT22;8328;52.206;21.006;2023-05-17T05:47:41;15.30;99.90
16437;DHT22;8328;52.206;21.006;2023-05-17T05:50:08;15.30;99.90
16437;DHT22;8328;52.206;21.006;2023-05-17T05:52:33;15.20;99.90
16437;DHT22;8328;52.206;21.006;2023-05-17T05:54:59;15.10;99.90
16437;DHT22;8328;52.206;21.006;2023-05-17T05:57:25;15.20;99.90
16437;DHT22;8328;52.206;21.006;2023-05-17T05:59:55;15.20;99.90
16437;DHT22;8328;52.206;21.006;2023-05-17T06:02:21;15.10;99.90
16437;DHT22;8328;52.206;21.006;2023-05-17T06:04:47;15.10;99.90
16437;DHT22;8328;52.206;21.006;2023-05-17T06:07:17;15.20;99.90
16437;DHT22;8328;52.206;21.006;2023-05-17T06:09:43;15.40;99.90
16437;DHT22;8328;52.206;21.006;2023-05-17T06:12:09;15.10;99.90
16437;DHT22;8328;52.206;21.006;2023-05-17T06:14:37;15.00;99.90
16437;DHT22;8328;52.206;21.006;2023-05-17T06:17:04;14.90;99.90
16437;DHT22;8328;52.206;21.006;2023-05-17T06:19:32;14.70;99.90
16437;DHT22;8328;52.206;21.006;2023-05-17T06:21:58;14.70;99.90
16437;DHT22;8328;52.206;21.006;2023-05-17T06:24:23;14.70;99.90
16437;DHT22;8328;52.206;21.006;2023-05-17T06:26:49;14.70;99.90
16437;DHT22;8328;52.206;21.006;2023-05-17T06:29:15;14.80;99.90
16437;DHT22;8328;52.206;21.006;2023-05-17T06:31:41;14.80;99.90
16437;DHT22;8328;52.206;21.006;2023-05-17T06:34:06;14.80;99.90
16437;DHT22;8328;52.206;21.006;2023-05-17T06:36:33;14.70;99.90
16437;DHT22;8328;52.206;21.006;2023-05-17T06:38:59;14.70;99.90
16437;DHT22;8328;52.206;21.006;2023-05-17T06:41:25;14.70;99.90
16437;DHT22;8328;52.206;21.006;2023-05-17T06:43:51;14.60;99.90
16437;DHT22;8328;52.206;21.006;2023-05-17T06:46:16;14.70;99.90
16437;DHT22;8328;52.206;21.006;2023-05-17T06:48:42;14.70;99.90
16437;DHT22;8328;52.206;21.006;2023-05-17T06:51:08;14.60;99.90
16437;DHT22;8328;52.206;21.006;2023-05-17T06:53:33;14.60;99.90
16437;DHT22;8328;52.206;21.006;2023-05-17T06:55:59;14.70;99.90
16437;DHT22;8328;52.206;21.006;2023-05-17T06:58:25;14.70;99.90
16437;DHT22;8328;52.206;21.006;2023-05-17T07:00:51;14.70;99.90
16437;DHT22;8328;52.206;21.006;2023-05-17T07:03:17;14.80;99.90
16437;DHT22;8328;52.206;21.006;2023-05-17T07:05:43;14.90;99.90
16437;DHT22;8328;52.206;21.006;2023-05-17T07:08:09;14.90;99.90
16437;DHT22;8328;52.206;21.006;2023-05-17T07:10:36;14.90;99.90
16437;DHT22;8328;52.206;21.006;2023-05-17T07:13:01;14.80;99.90
16437;DHT22;8328;52.206;21.006;2023-05-17T07:15:27;14.70;99.90
16437;DHT22;8328;52.206;21.006;2023-05-17T07:17:53;14.90;99.90
16437;DHT22;8328;52.206;21.006;2023-05-17T07:20:19;15.10;99.90
16437;DHT22;8328;52.206;21.006;2023-05-17T07:22:45;15.30;99.90
16437;DHT22;8328;52.206;21.006;2023-05-17T07:25:12;15.30;99.90
16437;DHT22;8328;52.206;21.006;2023-05-17T07:27:39;15.40;99.90
16437;DHT22;8328;52.206;21.006;2023-05-17T07:30:05;15.40;99.90
16437;DHT22;8328;52.206;21.006;2023-05-17T07:32:32;15.40;99.90
16437;DHT22;8328;52.206;21.006;2023-05-17T07:34:57;15.50;99.90
16437;DHT22;8328;52.206;21.006;2023-05-17T07:37:23;15.50;99.90
16437;DHT22;8328;52.206;21.006;2023-05-17T07:39:49;15.40;99.90
16437;DHT22;8328;52.206;21.006;2023-05-17T07:42:15;15.50;99.90
16437;DHT22;8328;52.206;21.006;2023-05-17T07:44:40;15.40;99.90
16437;DHT22;8328;52.206;21.006;2023-05-17T07:47:06;15.40;99.90
16437;DHT22;8328;52.206;21.006;2023-05-17T07:49:32;14.80;99.90
16437;DHT22;8328;52.206;21.006;2023-05-17T07:51:57;15.40;99.90
16437;DHT22;8328;52.206;21.006;2023-05-17T07:54:26;15.30;99.90
16437;DHT22;8328;52.206;21.006;2023-05-17T07:56:52;15.20;99.90
16437;DHT22;8328;52.206;21.006;2023-05-17T07:59:20;15.10;99.90
16437;DHT22;8328;52.206;21.006;2023-05-17T08:01:46;15.20;99.90
16437;DHT22;8328;52.206;21.006;2023-05-17T08:04:12;15.30;99.90
16437;DHT22;8328;52.206;21.006;2023-05-17T08:06:42;15.30;99.90
16437;DHT22;8328;52.206;21.006;2023-05-17T08:09:11;15.40;99.90
16437;DHT22;8328;52.206;21.006;2023-05-17T08:11:37;15.40;99.90
16437;DHT22;8328;52.206;21.006;2023-05-17T08:14:13;15.20;99.90
16437;DHT22;8328;52.206;21.006;2023-05-17T08:16:44;15.20;99.90
16437;DHT22;8328;52.206;21.006;2023-05-17T08:19:12;15.30;99.90
16437;DHT22;8328;52.206;21.006;2023-05-17T08:21:39;15.40;99.90
16437;DHT22;8328;52.206;21.006;2023-05-17T08:24:05;15.50;99.90
16437;DHT22;8328;52.206;21.006;2023-05-17T08:26:31;15.70;99.90
16437;DHT22;8328;52.206;21.006;2023-05-17T08:28:57;15.80;99.90
16437;DHT22;8328;52.206;21.006;2023-05-17T08:31:22;15.90;99.90
16437;DHT22;8328;52.206;21.006;2023-05-17T08:33:48;16.00;99.90
16437;DHT22;8328;52.206;21.006;2023-05-17T08:36:14;15.90;99.90
16437;DHT22;8328;52.206;21.006;2023-05-17T08:38:42;16.10;99.90
16437;DHT22;8328;52.206;21.006;2023-05-17T08:41:09;16.20;99.90
16437;DHT22;8328;52.206;21.006;2023-05-17T08:43:35;16.00;99.90
16437;DHT22;8328;52.206;21.006;2023-05-17T08:46:02;16.20;99.90
16437;DHT22;8328;52.206;21.006;2023-05-17T08:48:35;16.20;99.90
16437;DHT22;8328;52.206;21.006;2023-05-17T08:51:03;16.10;99.90
16437;DHT22;8328;52.206;21.006;2023-05-17T08:53:28;15.90;99.90
16437;DHT22;8328;52.206;21.006;2023-05-17T08:55:58;15.70;99.90
16437;DHT22;8328;52.206;21.006;2023-05-17T08:58:32;15.50;99.90
16437;DHT22;8328;52.206;21.006;2023-05-17T09:01:00;15.40;99.90
16437;DHT22;8328;52.206;21.006;2023-05-17T09:03:28;15.30;99.90
16437;DHT22;8328;52.206;21.006;2023-05-17T09:05:55;15.40;99.90
16437;DHT22;8328;52.206;21.006;2023-05-17T09:08:23;15.50;99.90
16437;DHT22;8328;52.206;21.006;2023-05-17T09:10:49;15.50;99.90
16437;DHT22;8328;52.206;21.006;2023-05-17T09:13:16;15.40;99.90
16437;DHT22;8328;52.206;21.006;2023-05-17T09:15:42;15.30;99.90
16437;DHT22;8328;52.206;21.006;2023-05-17T09:18:11;15.30;99.90
16437;DHT22;8328;52.206;21.006;2023-05-17T09:20:46;15.30;99.90
16437;DHT22;8328;52.206;21.006;2023-05-17T09:23:14;15.30;99.90
16437;DHT22;8328;52.206;21.006;2023-05-17T09:25:47;15.30;99.90
16437;DHT22;8328;52.206;21.006;2023-05-17T09:28:13;15.80;99.90
16437;DHT22;8328;52.206;21.006;2023-05-17T09:30:38;15.90;99.90
16437;DHT22;8328;52.206;21.006;2023-05-17T09:33:07;16.10;99.90
16437;DHT22;8328;52.206;21.006;2023-05-17T09:35:34;15.70;99.90
16437;DHT22;8328;52.206;21.006;2023-05-17T09:38:12;15.50;99.90
16437;DHT22;8328;52.206;21.006;2023-05-17T09:40:43;15.30;99.90
16437;DHT22;8328;52.206;21.006;2023-05-17T09:43:10;15.10;99.90
16437;DHT22;8328;52.206;21.006;2023-05-17T09:45:43;15.00;99.90
16437;DHT22;8328;52.206;21.006;2023-05-17T09:48:19;15.00;99.90
16437;DHT22;8328;52.206;21.006;2023-05-17T09:50:48;15.40;99.90
16437;DHT22;8328;52.206;21.006;2023-05-17T09:53:25;15.40;99.90
16437;DHT22;8328;52.206;21.006;2023-05-17T09:55:52;15.30;99.90
16437;DHT22;8328;52.206;21.006;2023-05-17T09:58:18;15.10;99.90
16437;DHT22;8328;52.206;21.006;2023-05-17T10:00:49;14.90;99.90
16437;DHT22;8328;52.206;21.006;2023-05-17T10:03:16;14.50;99.90
16437;DHT22;8328;52.206;21.006;2023-05-17T10:05:43;14.30;99.90
16437;DHT22;8328;52.206;21.006;2023-05-17T10:08:12;14.20;99.90
16437;DHT22;8328;52.206;21.006;2023-05-17T10:10:40;14.10;99.90
16437;DHT22;8328;52.206;21.006;2023-05-17T10:13:10;13.90;99.90
16437;DHT22;8328;52.206;21.006;2023-05-17T10:15:37;13.90;99.90
16437;DHT22;8328;52.206;21.006;2023-05-17T10:18:05;14.00;99.90
16437;DHT22;8328;52.206;21.006;2023-05-17T10:20:32;14.10;99.90
16437;DHT22;8328;52.206;21.006;2023-05-17T10:22:59;14.00;99.90
16437;DHT22;8328;52.206;21.006;2023-05-17T10:25:28;13.90;99.90
16437;DHT22;8328;52.206;21.006;2023-05-17T10:27:55;14.00;99.90
16437;DHT22;8328;52.206;21.006;2023-05-17T10:30:22;14.20;99.90
16437;DHT22;8328;52.206;21.006;2023-05-17T10:32:49;14.10;99.90
16437;DHT22;8328;52.206;21.006;2023-05-17T10:35:15;14.10;99.90
16437;DHT22;8328;52.206;21.006;2023-05-17T10:37:42;14.10;99.90
16437;DHT22;8328;52.206;21.006;2023-05-17T10:40:08;14.00;99.90
16437;DHT22;8328;52.206;21.006;2023-05-17T10:42:56;13.90;99.90
16437;DHT22;8328;52.206;21.006;2023-05-17T10:45:24;13.90;99.90
16437;DHT22;8328;52.206;21.006;2023-05-17T10:47:53;13.90;99.90
16437;DHT22;8328;52.206;21.006;2023-05-17T10:50:24;14.10;99.90
16437;DHT22;8328;52.206;21.006;2023-05-17T10:52:51;14.20;99.90
16437;DHT22;8328;52.206;21.006;2023-05-17T10:55:22;14.50;99.90
16437;DHT22;8328;52.206;21.006;2023-05-17T10:58:13;14.60;99.90
16437;DHT22;8328;52.206;21.006;2023-05-17T11:00:41;14.80;99.90
16437;DHT22;8328;52.206;21.006;2023-05-17T11:03:26;15.00;99.90
16437;DHT22;8328;52.206;21.006;2023-05-17T11:06:13;15.30;99.90
16437;DHT22;8328;52.206;21.006;2023-05-17T11:09:13;15.40;99.90
16437;DHT22;8328;52.206;21.006;2023-05-17T11:12:03;15.40;99.90
16437;DHT22;8328;52.206;21.006;2023-05-17T11:17:24;15.60;99.90
16437;DHT22;8328;52.206;21.006;2023-05-17T11:20:01;15.50;99.90
16437;DHT22;8328;52.206;21.006;2023-05-17T11:22:35;15.30;99.90
16437;DHT22;8328;52.206;21.006;2023-05-17T11:25:06;15.30;99.90
16437;DHT22;8328;52.206;21.006;2023-05-17T11:27:47;15.10;99.90
16437;DHT22;8328;52.206;21.006;2023-05-17T11:30:23;15.00;99.90
16437;DHT22;8328;52.206;21.006;2023-05-17T11:33:11;14.70;99.90
16437;DHT22;8328;52.206;21.006;2023-05-17T11:35:40;14.50;99.90
16437;DHT22;8328;52.206;21.006;2023-05-17T11:38:22;14.60;99.90
16437;DHT22;8328;52.206;21.006;2023-05-17T11:40:55;14.60;99.90
16437;DHT22;8328;52.206;21.006;2023-05-17T11:43:25;14.50;99.90
16437;DHT22;8328;52.206;21.006;2023-05-17T11:45:57;14.50;99.90
16437;DHT22;8328;52.206;21.006;2023-05-17T11:48:24;14.50;99.90
16437;DHT22;8328;52.206;21.006;2023-05-17T11:50:52;14.40;99.90
16437;DHT22;8328;52.206;21.006;2023-05-17T11:53:19;14.50;99.90
16437;DHT22;8328;52.206;21.006;2023-05-17T11:55:48;14.60;99.90
16437;DHT22;8328;52.206;21.006;2023-05-17T11:58:27;14.70;99.90
16437;DHT22;8328;52.206;21.006;2023-05-17T12:00:55;14.70;99.90
16437;DHT22;8328;52.206;21.006;2023-05-17T12:03:24;14.80;99.90
16437;DHT22;8328;52.206;21.006;2023-05-17T12:06:10;14.90;99.90
16437;DHT22;8328;52.206;21.006;2023-05-17T12:08:43;15.00;99.90
16437;DHT22;8328;52.206;21.006;2023-05-17T12:11:11;15.10;99.90
16437;DHT22;8328;52.206;21.006;2023-05-17T12:13:38;15.20;99.90
16437;DHT22;8328;52.206;21.006;2023-05-17T12:16:11;14.70;99.90
16437;DHT22;8328;52.206;21.006;2023-05-17T12:21:05;15.50;99.90
16437;DHT22;8328;52.206;21.006;2023-05-17T12:23:36;15.50;99.90
16437;DHT22;8328;52.206;21.006;2023-05-17T12:28:27;15.60;99.90
16437;DHT22;8328;52.206;21.006;2023-05-17T12:30:55;15.70;99.90
16437;DHT22;8328;52.206;21.006;2023-05-17T12:33:32;15.80;99.90
16437;DHT22;8328;52.206;21.006;2023-05-17T12:36:01;16.00;99.90
16437;DHT22;8328;52.206;21.006;2023-05-17T12:38:29;15.90;99.90
16437;DHT22;8328;52.206;21.006;2023-05-17T12:41:04;15.80;99.90
16437;DHT22;8328;52.206;21.006;2023-05-17T12:43:35;15.70;99.90
16437;DHT22;8328;52.206;21.006;2023-05-17T12:46:06;15.90;99.90
16437;DHT22;8328;52.206;21.006;2023-05-17T12:48:35;16.10;99.90
16437;DHT22;8328;52.206;21.006;2023-05-17T12:51:12;16.30;99.90
16437;DHT22;8328;52.206;21.006;2023-05-17T12:53:43;16.50;99.90
16437;DHT22;8328;52.206;21.006;2023-05-17T12:56:15;16.50;99.90
16437;DHT22;8328;52.206;21.006;2023-05-17T12:58:41;16.40;99.90
16437;DHT22;8328;52.206;21.006;2023-05-17T13:01:07;16.20;99.90
16437;DHT22;8328;52.206;21.006;2023-05-17T13:03:38;15.80;99.90
16437;DHT22;8328;52.206;21.006;2023-05-17T13:06:05;15.70;99.90
16437;DHT22;8328;52.206;21.006;2023-05-17T13:08:32;15.60;99.90
16437;DHT22;8328;52.206;21.006;2023-05-17T13:11:09;15.60;99.90
16437;DHT22;8328;52.206;21.006;2023-05-17T13:13:35;15.60;99.90
16437;DHT22;8328;52.206;21.006;2023-05-17T13:16:01;15.60;99.90
16437;DHT22;8328;52.206;21.006;2023-05-17T13:18:27;15.70;99.90
16437;DHT22;8328;52.206;21.006;2023-05-17T13:20:53;15.60;99.90
16437;DHT22;8328;52.206;21.006;2023-05-17T13:23:19;15.60;99.90
16437;DHT22;8328;52.206;21.006;2023-05-17T13:25:45;15.50;99.90
16437;DHT22;8328;52.206;21.006;2023-05-17T13:28:11;15.40;99.90
16437;DHT22;8328;52.206;21.006;2023-05-17T13:30:36;15.30;99.90
16437;DHT22;8328;52.206;21.006;2023-05-17T13:33:02;15.40;99.90
16437;DHT22;8328;52.206;21.006;2023-05-17T13:35:28;15.40;99.90
16437;DHT22;8328;52.206;21.006;2023-05-17T13:37:54;15.30;99.90
16437;DHT22;8328;52.206;21.006;2023-05-17T13:40:22;15.10;99.90
16437;DHT22;8328;52.206;21.006;2023-05-17T13:42:48;15.10;99.90
16437;DHT22;8328;52.206;21.006;2023-05-17T13:45:13;15.30;99.90
16437;DHT22;8328;52.206;21.006;2023-05-17T13:47:39;15.80;99.90
16437;DHT22;8328;52.206;21.006;2023-05-17T13:50:06;16.60;99.90
16437;DHT22;8328;52.206;21.006;2023-05-17T13:52:32;17.30;99.90
16437;DHT22;8328;52.206;21.006;2023-05-17T13:54:58;17.70;99.90
16437;DHT22;8328;52.206;21.006;2023-05-17T13:57:24;18.00;99.90
16437;DHT22;8328;52.206;21.006;2023-05-17T13:59:49;18.00;99.90
16437;DHT22;8328;52.206;21.006;2023-05-17T14:02:15;17.70;99.90
16437;DHT22;8328;52.206;21.006;2023-05-17T14:04:41;17.50;99.90
16437;DHT22;8328;52.206;21.006;2023-05-17T14:07:07;17.00;99.90
16437;DHT22;8328;52.206;21.006;2023-05-17T14:09:35;16.60;99.90
16437;DHT22;8328;52.206;21.006;2023-05-17T14:12:01;16.00;99.90
16437;DHT22;8328;52.206;21.006;2023-05-17T14:14:29;15.70;99.90
16437;DHT22;8328;52.206;21.006;2023-05-17T14:16:55;15.50;99.90
16437;DHT22;8328;52.206;21.006;2023-05-17T14:19:21;15.30;99.90
16437;DHT22;8328;52.206;21.006;2023-05-17T14:21:46;15.10;99.90
16437;DHT22;8328;52.206;21.006;2023-05-17T14:24:12;14.90;99.90
16437;DHT22;8328;52.206;21.006;2023-05-17T14:26:38;14.70;99.90
16437;DHT22;8328;52.206;21.006;2023-05-17T14:29:04;14.70;99.90
16437;DHT22;8328;52.206;21.006;2023-05-17T14:31:30;14.70;99.90
16437;DHT22;8328;52.206;21.006;2023-05-17T14:33:57;14.80;99.90
16437;DHT22;8328;52.206;21.006;2023-05-17T14:36:24;14.80;99.90
16437;DHT22;8328;52.206;21.006;2023-05-17T14:38:50;15.00;99.90
16437;DHT22;8328;52.206;21.006;2023-05-17T14:41:18;15.10;99.90
16437;DHT22;8328;52.206;21.006;2023-05-17T14:43:47;15.10;99.90
16437;DHT22;8328;52.206;21.006;2023-05-17T14:46:13;15.10;99.90
16437;DHT22;8328;52.206;21.006;2023-05-17T14:48:41;15.00;99.90
16437;DHT22;8328;52.206;21.006;2023-05-17T14:51:07;14.50;99.90
16437;DHT22;8328;52.206;21.006;2023-05-17T14:53:32;15.00;99.90
16437;DHT22;8328;52.206;21.006;2023-05-17T14:55:58;14.90;99.90
16437;DHT22;8328;52.206;21.006;2023-05-17T14:58:24;14.20;99.90
16437;DHT22;8328;52.206;21.006;2023-05-17T15:00:53;14.80;99.90
16437;DHT22;8328;52.206;21.006;2023-05-17T15:03:22;14.80;99.90
16437;DHT22;8328;52.206;21.006;2023-05-17T15:05:55;14.70;99.90
16437;DHT22;8328;52.206;21.006;2023-05-17T15:08:21;14.70;99.90
16437;DHT22;8328;52.206;21.006;2023-05-17T15:10:51;14.70;99.90
16437;DHT22;8328;52.206;21.006;2023-05-17T15:13:17;14.50;99.90
16437;DHT22;8328;52.206;21.006;2023-05-17T15:15:43;14.40;99.90
16437;DHT22;8328;52.206;21.006;2023-05-17T15:18:09;14.30;99.90
16437;DHT22;8328;52.206;21.006;2023-05-17T15:20:39;14.40;99.90
16437;DHT22;8328;52.206;21.006;2023-05-17T15:23:05;14.30;99.90
16437;DHT22;8328;52.206;21.006;2023-05-17T15:25:31;14.40;99.90
16437;DHT22;8328;52.206;21.006;2023-05-17T15:27:57;14.40;99.90
16437;DHT22;8328;52.206;21.006;2023-05-17T15:30:23;14.20;99.90
16437;DHT22;8328;52.206;21.006;2023-05-17T15:32:56;14.20;99.90
16437;DHT22;8328;52.206;21.006;2023-05-17T15:35:22;14.30;99.90
16437;DHT22;8328;52.206;21.006;2023-05-17T15:37:50;14.30;99.90
16437;DHT22;8328;52.206;21.006;2023-05-17T15:40:17;14.10;99.90
16437;DHT22;8328;52.206;21.006;2023-05-17T15:42:43;14.20;99.90
16437;DHT22;8328;52.206;21.006;2023-05-17T15:45:09;14.10;99.90
16437;DHT22;8328;52.206;21.006;2023-05-17T15:47:35;14.10;99.90
16437;DHT22;8328;52.206;21.006;2023-05-17T15:50:01;14.10;99.90